WetterOnline ( https://www.wetteronline.ch )

Wetter aktuell Berlin

Aktuelles Wetter: Berlin-Tegel (37m)

6-stündlich | Neueste Meldungen
Ortszeit Temperatur Wetter
Mi, 27.01. 7:00 -0.6° C bedeckt
Mi, 27.01. 1:00 0.9° C bewölkt
Di, 26.01. 19:00 1.5° C bewölkt
Di, 26.01. 13:00 1.9° C wolkig
Di, 26.01. 7:00 -2.1° C fast wolkenlos
Di, 26.01. 1:00 0.4° C bedeckt
Mo, 25.01. 19:00 1.0° C bewölkt
Mo, 25.01. 13:00 1.5° C bedeckt
Ortszeit Temperatur Wetter
Mi, 27.01. 7:30 -0.3° C bedeckt
Mi, 27.01. 7:20 -0.3° C -
Mi, 27.01. 7:10 -0.5° C -
Mi, 27.01. 7:00 -0.6° C bedeckt
Mi, 27.01. 6:50 -0.6° C -
Mi, 27.01. 6:40 -0.6° C -
Mi, 27.01. 6:30 -0.5° C bedeckt
Mi, 27.01. 6:00 -0.8° C bedeckt
Mi, 27.01. 5:30 -0.8° C bewölkt
Mi, 27.01. 5:00 -1.1° C bewölkt
Mi, 27.01. 4:30 -2.0° C leicht bewölkt
Ortszeit Relative Feuchte Sichtweite
Mi, 27.01. 7:00 99% 3.0 km
Mi, 27.01. 1:00 90% 20 km
Di, 26.01. 19:00 85% 20 km
Di, 26.01. 13:00 80% 16 km
Di, 26.01. 7:00 94% 12 km
Di, 26.01. 1:00 94% 8 km
Mo, 25.01. 19:00 87% 12 km
Mo, 25.01. 13:00 85% 18 km
Ortszeit Relative Feuchte Sichtweite
Mi, 27.01. 7:30 99% 3.5 km
Mi, 27.01. 7:20 99% -
Mi, 27.01. 7:10 100% -
Mi, 27.01. 7:00 99% 3.0 km
Mi, 27.01. 6:50 99% -
Mi, 27.01. 6:40 99% -
Mi, 27.01. 6:30 99% 3.1 km
Mi, 27.01. 6:00 98% 4.2 km
Mi, 27.01. 5:30 96% 7 km
Mi, 27.01. 5:00 96% 8 km
Mi, 27.01. 4:30 96% 15 km
Ortszeit Niederschlagsmenge Niederschlagsart
Mi, 27.01. 7:00 0.1 l/m2 in 12 Std. -
Mi, 27.01. 1:00 0.1 l/m2 in 6 Std. Schauer
Di, 26.01. 19:00 0.1 l/m2 in 12 Std. Schauer
Di, 26.01. 13:00 0.0 l/m2 in 6 Std. -
Di, 26.01. 7:00 0.2 l/m2 in 12 Std. -
Di, 26.01. 1:00 0.2 l/m2 in 6 Std. Schnee
Mo, 25.01. 19:00 0.1 l/m2 in 12 Std. -
Mo, 25.01. 13:00 0.1 l/m2 in 6 Std. Sprühregen
Ortszeit Niederschlagsmenge Niederschlagsart
Mi, 27.01. 7:30 0.0 l/m2 in 1 Std. -
Mi, 27.01. 7:20 keine Meldung -
Mi, 27.01. 7:10 keine Meldung -
Mi, 27.01. 7:00 0.0 l/m2 in 1 Std. -
Mi, 27.01. 6:50 keine Meldung -
Mi, 27.01. 6:40 keine Meldung -
Mi, 27.01. 6:30 0.0 l/m2 in 1 Std. -
Mi, 27.01. 6:00 0.0 l/m2 in 1 Std. -
Mi, 27.01. 5:30 0.0 l/m2 in 1 Std. -
Mi, 27.01. 5:00 0.0 l/m2 in 1 Std. -
Mi, 27.01. 4:30 0.0 l/m2 in 1 Std. -
Ortszeit Stärke Spitze Richtung
km/h Bft. km/h Grad Sektor
Mi, 27.01. 7:00 7 2 25 230° SW
Mi, 27.01. 1:00 13 3 37 270° W
Di, 26.01. 19:00 14 3 29 270° W
Di, 26.01. 13:00 15 3 22 280° W
Di, 26.01. 7:00 4 1 18 260° W
Di, 26.01. 1:00 6 1 15 250° W
Mo, 25.01. 19:00 11 2 18 280° W
Mo, 25.01. 13:00 13 3 22 280° W
Ortszeit Stärke Spitze Richtung
km/h Bft. km/h Grad Sektor
Mi, 27.01. 7:30 6 1 7 260° W
Mi, 27.01. 7:20 6 1 - 260° W
Mi, 27.01. 7:10 4 1 - 250° W
Mi, 27.01. 7:00 7 2 14 230° SW
Mi, 27.01. 6:50 7 2 - 230° SW
Mi, 27.01. 6:40 7 2 - 240° SW
Mi, 27.01. 6:30 7 2 14 290° W
Mi, 27.01. 6:00 11 2 18 280° W
Mi, 27.01. 5:30 7 2 14 270° W
Mi, 27.01. 5:00 9 2 13 280° W
Mi, 27.01. 4:30 11 2 14 260° W
Ortszeit Untergrenze Bedeckung Gattung
total tief tief mittel hoch
Mi, 27.01. 7:00 60 m 8/8 8/8 St - -
Mi, 27.01. 1:00 240 m 7/8 7/8 Sc - -
Di, 26.01. 19:00 750 m 7/8 7/8 Sc - -
Di, 26.01. 13:00 390 m 7/8 5/8 Sc Ac -
Di, 26.01. 7:00 1500 m 1/8 1/8 Sc - Ci
Di, 26.01. 1:00 240 m 8/8 7/8 Sc - -
Mo, 25.01. 19:00 510 m 7/8 7/8 Sc - -
Mo, 25.01. 13:00 270 m 8/8 7/8 Sc - -
Ortszeit Bedeckungsgrad in Achtel und Wolkenuntergrenze
Mi, 27.01. 7:30 7(90m)
Mi, 27.01. 7:20 -
Mi, 27.01. 7:10 -
Mi, 27.01. 7:00 8(60m)
Mi, 27.01. 6:50 -
Mi, 27.01. 6:40 -
Mi, 27.01. 6:30 3(30m) 8(60m)
Mi, 27.01. 6:00 8(60m)
Mi, 27.01. 5:30 7(90m)
Mi, 27.01. 5:00 7(120m)
Mi, 27.01. 4:30 1(120m)
Ortszeit Luftdruck NN (hPa) Tendenz (hPa in 3 Std.)
Mi, 27.01. 7:00 1015 - 0,5
Mi, 27.01. 1:00 1015 + 0,5
Di, 26.01. 19:00 1014 + 0,9
Di, 26.01. 13:00 1012 + 0,8
Di, 26.01. 7:00 1010 + 0,4
Di, 26.01. 1:00 1008 + 0,6
Mo, 25.01. 19:00 1006 + 1,8
Mo, 25.01. 13:00 1003 + 1,4
Ortszeit Luftdruck NN (hPa) Tendenz (hPa in 3 Std.)
Mi, 27.01. 7:30 1014 - 0,4
Mi, 27.01. 7:20 1014 keine Meldung
Mi, 27.01. 7:10 1015 keine Meldung
Mi, 27.01. 7:00 1015 - 0,5
Mi, 27.01. 6:50 1015 keine Meldung
Mi, 27.01. 6:40 1015 keine Meldung
Mi, 27.01. 6:30 1015 - 0,2
Mi, 27.01. 6:00 1015 - 0,2
Mi, 27.01. 5:30 1015 - 0,3
Mi, 27.01. 5:00 1015 - 0,1
Mi, 27.01. 4:30 1015 - 0,3
Ortszeit Schneehöhe (cm)
Mi, 27.01. 7:00 0
Mi, 27.01. 1:00 0
Di, 26.01. 19:00 0
Di, 26.01. 13:00 0
Di, 26.01. 7:00 -
Di, 26.01. 1:00 -
Mo, 25.01. 19:00 0
Mo, 25.01. 13:00 0
Ortszeit Schneehöhe (cm)
Mi, 27.01. 7:30 -
Mi, 27.01. 7:20 -
Mi, 27.01. 7:10 -
Mi, 27.01. 7:00 0
Mi, 27.01. 6:50 -
Mi, 27.01. 6:40 -
Mi, 27.01. 6:30 -
Mi, 27.01. 6:00 -
Mi, 27.01. 5:30 -
Mi, 27.01. 5:00 -
Mi, 27.01. 4:30 -
Link zu dieser Seite / Seite empfehlen

Das Wetter in ...